Charlotte, NC

8:55 PM EST on December 02, 2016 (GMT -0500)
Biddleville | | Change Station

Elev 735 ft 35.24 °N, 80.86 °W | Updated 4 seconds ago

Partly Cloudy
Partly Cloudy
44.4 °F
Feels Like 44 °F
N
0.0
Wind Variable Wind from SE
Gusts 0.0 mph

Today
High -- | Low -- °F
--% Chance of Precip.
Yesterday
High -- | Low -- °F
Precip. -- in
Pressure 30.20 in
Visibility 10.0 miles
Clouds Few 25000 ft
Windchill 44 °F
Dew Point 28 °F
Humidity 51%
Rainfall 0.00 in
Snow Depth Not available.
7:14 AM 5:11 PM
Waxing Crescent, 11% visible
METAR KCLT 030152Z 30005KT 10SM FEW250 08/M05 A3019 RMK AO2 SLP225 T00781050
Pressure 30.20 in
Visibility 10.0 miles
Clouds Few 25000 ft
Windchill 44 °F
Dew Point 28 °F
Humidity 51%
Rainfall 0.00 in
Snow Depth Not available.
7:14 AM 5:11 PM
Waxing Crescent, 11% visible
METAR KCLT 030152Z 30005KT 10SM FEW250 08/M05 A3019 RMK AO2 SLP225 T00781050

10-Day Weather Forecast

Almanac

Astronomy

Dec. 02, 2016 Rise Set
Actual Time
Civil Twilight
Nautical Twilight
Astronomical Twilight
Moon
Length of Visible Light
Length of Day
Tomorrow will be .
, % of the Moon is Illuminated

Today's Extremes

State Highs State Lows

Community

WunderPhotos

Upload Photos

1,955,392 photos uploaded!

WunderBlog® & News

Nearby

Air Quality

  Air Quality AQ Index Pollutant
Not available.

Snow Depth

Station Depth Elevation

Earthquake Activity

City Distance Mag. Time & Date
Minimum magnitude displayed is 2.5.

Coastal Water Temperatures

Place Temperature

Stations

Nearby Weather Stations

Station Location Temp. Windchill Dew Point Humidity Wind Precip. Elev Updated Type
                   

Watches & Warnings

There are currently no watches in effect.